SHARE
TWEET

Untitled

a guest Aug 23rd, 2011 53 Never
Not a member of Pastebin yet? Sign Up, it unlocks many cool features!
  1. 19:12:48 T:3688 M:1026973696  NOTICE: -----------------------------------------------------------------------
  2. 19:12:48 T:3688 M:1026945024  NOTICE: Starting XBMC, Platform: Windows Vista, 32-bit Service Pack 2 build 6002. Built on Mar  8 2011 (Git:e9e9099, compiler 1500)
  3. 19:12:48 T:3688 M:1026945024  NOTICE: Genuine Intel(R) CPU           T1600  @ 1.66GHz
  4. 19:12:48 T:3688 M:1026945024  NOTICE: Desktop Resolution: 1440x900 32Bit at 59Hz
  5. 19:12:48 T:3688 M:1026945024  NOTICE: Running with administrator rights
  6. 19:12:48 T:3688 M:1026945024  NOTICE: special://xbmc/ is mapped to: C:\Program Files\XBMC
  7. 19:12:48 T:3688 M:1026945024  NOTICE: special://xbmcbin/ is mapped to: C:\Program Files\XBMC
  8. 19:12:48 T:3688 M:1026945024  NOTICE: special://masterprofile/ is mapped to: C:\Users\Mike\AppData\Roaming\XBMC\userdata
  9. 19:12:48 T:3688 M:1026945024  NOTICE: special://home/ is mapped to: C:\Users\Mike\AppData\Roaming\XBMC
  10. 19:12:48 T:3688 M:1026945024  NOTICE: special://temp/ is mapped to: C:\Users\Mike\AppData\Roaming\XBMC\cache
  11. 19:12:48 T:3688 M:1026945024  NOTICE: The executable running is: C:\Program Files\XBMC\XBMC.exe
  12. 19:12:48 T:3688 M:1026945024  NOTICE: Log File is located: C:\Users\Mike\AppData\Roaming\XBMC\xbmc.log
  13. 19:12:48 T:3688 M:1026945024  NOTICE: -----------------------------------------------------------------------
  14. 19:12:48 T:3688 M:1026924544  NOTICE: Setup SDL
  15. 19:12:48 T:3688 M:1026662400  NOTICE: Found screen: Generic PnP Monitor on Mobile Intel(R) 4 Series Express Chipset Family, adapter 0.
  16. 19:12:48 T:3688 M:1026658304  NOTICE: Primary mode: 1440x900 @ 59.94 - Full Screen
  17. 19:12:48 T:3688 M:1026461696  NOTICE: Additional mode: 320x200 @ 59.94 - Full Screen
  18. 19:12:48 T:3688 M:1026457600  NOTICE: Additional mode: 320x200 @ 60.00 - Full Screen
  19. 19:12:48 T:3688 M:1026457600  NOTICE: Additional mode: 320x240 @ 59.94 - Full Screen
  20. 19:12:48 T:3688 M:1026457600  NOTICE: Additional mode: 320x240 @ 60.00 - Full Screen
  21. 19:12:48 T:3688 M:1026457600  NOTICE: Additional mode: 400x300 @ 59.94 - Full Screen
  22. 19:12:48 T:3688 M:1026457600  NOTICE: Additional mode: 400x300 @ 60.00 - Full Screen
  23. 19:12:48 T:3688 M:1026457600  NOTICE: Additional mode: 512x384 @ 59.94 - Full Screen
  24. 19:12:48 T:3688 M:1026449408  NOTICE: Additional mode: 512x384 @ 60.00 - Full Screen
  25. 19:12:48 T:3688 M:1026449408  NOTICE: Additional mode: 640x400 @ 59.94 - Full Screen
  26. 19:12:48 T:3688 M:1026449408  NOTICE: Additional mode: 640x400 @ 60.00 - Full Screen
  27. 19:12:48 T:3688 M:1026449408  NOTICE: Additional mode: 640x480 @ 59.94 - Full Screen
  28. 19:12:48 T:3688 M:1026449408  NOTICE: Additional mode: 640x480 @ 60.00 - Full Screen
  29. 19:12:48 T:3688 M:1026449408  NOTICE: Additional mode: 800x600 @ 59.94 - Full Screen
  30. 19:12:48 T:3688 M:1026449408  NOTICE: Additional mode: 800x600 @ 60.00 - Full Screen
  31. 19:12:48 T:3688 M:1026449408  NOTICE: Additional mode: 1024x768 @ 59.94 - Full Screen
  32. 19:12:48 T:3688 M:1026445312  NOTICE: Additional mode: 1024x768 @ 60.00 - Full Screen
  33. 19:12:48 T:3688 M:1026437120  NOTICE: Additional mode: 1152x864 @ 59.94 - Full Screen
  34. 19:12:48 T:3688 M:1026437120  NOTICE: Additional mode: 1152x864 @ 60.00 - Full Screen
  35. 19:12:48 T:3688 M:1026437120  NOTICE: Additional mode: 1280x600 @ 59.94 - Full Screen
  36. 19:12:48 T:3688 M:1026437120  NOTICE: Additional mode: 1280x600 @ 60.00 - Full Screen
  37. 19:12:48 T:3688 M:1026437120  NOTICE: Additional mode: 1280x720 @ 59.94 - Full Screen
  38. 19:12:48 T:3688 M:1026437120  NOTICE: Additional mode: 1280x720 @ 60.00 - Full Screen
  39. 19:12:48 T:3688 M:1026437120  NOTICE: Additional mode: 1280x768 @ 59.94 - Full Screen
  40. 19:12:48 T:3688 M:1026437120  NOTICE: Additional mode: 1280x768 @ 60.00 - Full Screen
  41. 19:12:48 T:3688 M:1026437120  NOTICE: Additional mode: 1280x800 @ 59.94 - Full Screen
  42. 19:12:48 T:3688 M:1026437120  NOTICE: Additional mode: 1280x800 @ 60.00 - Full Screen
  43. 19:12:48 T:3688 M:1026437120  NOTICE: Additional mode: 1360x768 @ 59.94 - Full Screen
  44. 19:12:48 T:3688 M:1026437120  NOTICE: Additional mode: 1360x768 @ 60.00 - Full Screen
  45. 19:12:48 T:3688 M:1026437120  NOTICE: Additional mode: 1366x768 @ 59.94 - Full Screen
  46. 19:12:48 T:3688 M:1026433024  NOTICE: Additional mode: 1366x768 @ 60.00 - Full Screen
  47. 19:12:48 T:3688 M:1026433024  NOTICE: Additional mode: 1440x900 @ 59.94 - Full Screen
  48. 19:12:48 T:3688 M:1026433024  NOTICE: Additional mode: 1440x900 @ 60.00 - Full Screen
  49. 19:12:48 T:3688 M:1026625536  NOTICE: load settings...
  50. 19:12:48 T:3688 M:1026527232  NOTICE: special://profile/ is mapped to: special://masterprofile/
  51. 19:12:48 T:3688 M:1026519040  NOTICE: loading special://masterprofile/guisettings.xml
  52. 19:12:48 T:3688 M:1025486848  NOTICE: Getting hardware information now...
  53. 19:12:48 T:3688 M:1025486848  NOTICE: Checking resolution 11
  54. 19:12:48 T:3688 M:1025363968  NOTICE: Loading player core factory settings from special://xbmc/system/playercorefactory.xml.
  55. 19:12:48 T:3688 M:1025265664  NOTICE: Loaded playercorefactory configuration
  56. 19:12:48 T:3688 M:1025265664  NOTICE: Loading player core factory settings from special://masterprofile/playercorefactory.xml.
  57. 19:12:48 T:3688 M:1025265664  NOTICE: special://masterprofile/playercorefactory.xml does not exist. Skipping.
  58. 19:12:48 T:3688 M:1025196032  NOTICE: Loaded advancedsettings.xml from special://profile/advancedsettings.xml
  59. 19:12:48 T:3688 M:1025191936  NOTICE: Contents of special://profile/advancedsettings.xml are...
  60.                                             <advancedsettings>
  61.                                               <videolibrary>
  62.                                                 <allitemsonbottom>true</allitemsonbottom>
  63.                                                 <!-- sorts the "*All" items at the bottom of the list when in Ascending order -->
  64.                                                 <backgroundupdate>true</backgroundupdate>
  65.                                                 <!-- set to hide the video scanner dialog from the gui -->
  66.                                                 <cleanonupdate>true</cleanonupdate>
  67.                                                 <!-- default set to false to prevent xbmc from removing items from the database while updating -->
  68.                                                 this is *space* *slash* *space* --&gt;&#x0A;    
  69.                                                 <exportautothumbs>true</exportautothumbs>
  70.                                                 <!-- export auto-generated thumbs. Defaults to false -->
  71.                                                 <importwatchedstate>true</importwatchedstate>
  72.                                                 <!-- import previously exported playdate and playcount from .nfo files. Defaults to false -->
  73.                                               </videolibrary>
  74.                                               <useddsfanart>true</useddsfanart>
  75.                                             </advancedsettings>
  76. 19:12:48 T:3688 M:1025110016  NOTICE: Getting hardware information now...
  77. 19:12:48 T:3688 M:1025110016  NOTICE: Checking resolution 11
  78. 19:12:48 T:3688 M:1025110016  NOTICE: Default DVD Player: dvdplayer
  79. 19:12:48 T:3688 M:1025110016  NOTICE: Default Video Player: dvdplayer
  80. 19:12:48 T:3688 M:1025110016  NOTICE: Default Audio Player: paplayer
  81. 19:12:48 T:3688 M:1025110016  NOTICE: Enabled debug logging due to GUI setting (2)
  82. 19:12:48 T:3688 M:1025069056  NOTICE: Loading media sources from special://masterprofile/sources.xml
  83. 19:12:48 T:3688 M:1024872448    INFO: creating subdirectories
  84. 19:12:48 T:3688 M:1024872448    INFO: userdata folder: special://masterprofile/
  85. 19:12:48 T:3688 M:1024872448    INFO: recording folder:
  86. 19:12:48 T:3688 M:1024872448    INFO: screenshots folder:
  87. 19:12:48 T:3688 M:1024741376    INFO: thumbnails folder: special://masterprofile/Thumbnails
  88. 19:12:48 T:3688 M:1023979520    INFO: load language info file: special://xbmc/language/English/langinfo.xml
  89. 19:12:48 T:3688 M:1023901696    INFO: load language file:special://xbmc/language/English/strings.xml
  90. 19:12:48 T:3688 M:1022291968   DEBUG: Win32DllLoader::Load(special://xbmcbin/system/cpluff.dll)
  91. 19:12:48 T:3688 M:1021927424   DEBUG: Win32DllLoader::Load(special://xbmcbin/system/libexpat.dll)
  92. 19:12:48 T:3688 M:1018572800   DEBUG: ADDON: cpluff: 'Plug-in plugin.video.nickelodeon has been installed.'
  93. 19:12:48 T:3688 M:1018572800   DEBUG: ADDON: cpluff: 'Plug-in plugin.video.topdoc has been installed.'
  94. 19:12:48 T:3688 M:1018568704   DEBUG: ADDON: cpluff: 'Plug-in metadata.albums.allmusic.com has been installed.'
  95. 19:12:48 T:3688 M:1018568704   DEBUG: ADDON: cpluff: 'Plug-in webinterface.default has been installed.'
  96. 19:12:48 T:3688 M:1018568704   DEBUG: ADDON: cpluff: 'Plug-in repository.xbmc.org has been installed.'
  97. 19:12:48 T:3688 M:1018568704   DEBUG: ADDON: cpluff: 'Plug-in screensaver.xbmc.builtin.black has been installed.'
  98. 19:12:48 T:3688 M:1018568704   DEBUG: ADDON: cpluff: 'Plug-in screensaver.rsxs.euphoria has been installed.'
  99. 19:12:48 T:3688 M:1018568704   DEBUG: ADDON: cpluff: 'Plug-in plugin.video.iplayer has been installed.'
  100. 19:12:48 T:3688 M:1018535936   DEBUG: ADDON: cpluff: 'Plug-in script.randomitems has been installed.'
  101. 19:12:48 T:3688 M:1018535936   DEBUG: ADDON: cpluff: 'Plug-in visualization.projectm has been installed.'
  102. 19:12:48 T:3688 M:1018535936   DEBUG: ADDON: cpluff: 'Plug-in script.module.simplejson has been installed.'
  103. 19:12:48 T:3688 M:1018535936   DEBUG: ADDON: cpluff: 'Plug-in screensaver.xbmc.builtin.dim has been installed.'
  104. 19:12:48 T:3688 M:1018535936   DEBUG: ADDON: cpluff: 'Plug-in script.favourites has been installed.'
  105. 19:12:48 T:3688 M:1018535936   DEBUG: ADDON: cpluff: 'Plug-in metadata.artists.allmusic.com has been installed.'
  106. 19:12:48 T:3688 M:1018535936   DEBUG: ADDON: cpluff: 'Plug-in plugin.video.itv has been installed.'
  107. 19:12:48 T:3688 M:1018535936   DEBUG: ADDON: cpluff: 'Plug-in metadata.themoviedb.org has been installed.'
  108. 19:12:48 T:3688 M:1018535936   DEBUG: ADDON: cpluff: 'Plug-in xbmc.metadata has been installed.'
  109. 19:12:48 T:3688 M:1018535936   DEBUG: ADDON: cpluff: 'Plug-in script.qlock has been installed.'
  110. 19:12:48 T:3688 M:1018535936   DEBUG: ADDON: cpluff: 'Plug-in skin.confluence has been installed.'
  111. 19:12:48 T:3688 M:1018535936   DEBUG: ADDON: cpluff: 'Plug-in visualization.glspectrum has been installed.'
  112. 19:12:48 T:3688 M:1018535936   DEBUG: ADDON: cpluff: 'Plug-in script.tvtunes has been installed.'
  113. 19:12:48 T:3688 M:1018535936   DEBUG: ADDON: cpluff: 'Plug-in script.module.beautifulsoup has been installed.'
  114. 19:12:48 T:3688 M:1018535936   DEBUG: ADDON: cpluff: 'Plug-in repository.googlecode.sparetime has been installed.'
  115. 19:12:48 T:3688 M:1018535936   DEBUG: ADDON: cpluff: 'Plug-in xbmc.gui has been installed.'
  116. 19:12:48 T:3688 M:1018535936   DEBUG: ADDON: cpluff: 'Plug-in visualization.milkdrop has been installed.'
  117. 19:12:48 T:3688 M:1018503168   DEBUG: ADDON: cpluff: 'Plug-in script.module.pil has been installed.'
  118. 19:12:48 T:3688 M:1018503168   DEBUG: ADDON: cpluff: 'Plug-in visualization.dxspectrum has been installed.'
  119. 19:12:48 T:3688 M:1018503168   DEBUG: ADDON: cpluff: 'Plug-in script.logo-downloader has been installed.'
  120. 19:12:48 T:3688 M:1018503168   DEBUG: ADDON: cpluff: 'Plug-in xbmc.core has been installed.'
  121. 19:12:48 T:3688 M:1018503168   DEBUG: ADDON: cpluff: 'Plug-in script.recentlyadded has been installed.'
  122. 19:12:48 T:3688 M:1018503168   DEBUG: ADDON: cpluff: 'Plug-in plugin.video.youtube has been installed.'
  123. 19:12:48 T:3688 M:1018503168   DEBUG: ADDON: cpluff: 'Plug-in screensaver.xbmc.builtin.slideshow has been installed.'
  124. 19:12:48 T:3688 M:1018499072   DEBUG: ADDON: cpluff: 'Plug-in metadata.common.htbackdrops.com has been installed.'
  125. 19:12:48 T:3688 M:1018499072   DEBUG: ADDON: cpluff: 'Plug-in script.rss.editor has been installed.'
  126. 19:12:48 T:3688 M:1018499072   DEBUG: ADDON: cpluff: 'Plug-in metadata.common.allmusic.com has been installed.'
  127. 19:12:48 T:3688 M:1018499072   DEBUG: ADDON: cpluff: 'Plug-in metadata.tvdb.com has been installed.'
  128. 19:12:48 T:3688 M:1018499072   DEBUG: ADDON: cpluff: 'Plug-in weather.xbmc.builtin has been installed.'
  129. 19:12:48 T:3688 M:1018499072   DEBUG: ADDON: cpluff: 'Plug-in metadata.common.last.fm has been installed.'
  130. 19:12:48 T:3688 M:1018499072   DEBUG: ADDON: cpluff: 'Plug-in metadata.common.themoviedb.org has been installed.'
  131. 19:12:48 T:3688 M:1018494976   DEBUG: ADDON: cpluff: 'Plug-in xbmc.python has been installed.'
  132. 19:12:48 T:3688 M:1018494976   DEBUG: ADDON: cpluff: 'Plug-in metadata.common.imdb.com has been installed.'
  133. 19:12:48 T:3688 M:1018494976   DEBUG: ADDON: cpluff: 'Plug-in script.web.viewer has been installed.'
  134. 19:12:48 T:3688 M:1018494976   DEBUG: ADDON: cpluff: 'Plug-in script.module.elementtree has been installed.'
  135. 19:12:48 T:3688 M:1018494976   DEBUG: ADDON: cpluff: 'Plug-in xbmc.addon has been installed.'
  136. 19:12:48 T:3688 M:1018462208   DEBUG: ADDON: cpluff: 'Plug-in visualization.waveform has been installed.'
  137. 19:12:48 T:3688 M:1018462208   DEBUG: ADDON: cpluff: 'Plug-in screensaver.rsxs.plasma has been installed.'
  138. 19:12:48 T:3688 M:1018462208   DEBUG: ADDON: cpluff: 'Plug-in skin.transparency has been installed.'
  139. 19:12:48 T:3688 M:1018462208   DEBUG: ADDON: cpluff: 'Plug-in script.module.pysqlite has been installed.'
  140. 19:12:48 T:3688 M:1018462208   DEBUG: ADDON: cpluff: 'Plug-in metadata.mtv.com has been installed.'
  141. 19:12:48 T:3688 M:1018458112   DEBUG: ADDON: cpluff: 'Plug-in visualization.itunes has been installed.'
  142. 19:12:48 T:3688 M:1018458112   DEBUG: ADDON: cpluff: 'Plug-in metadata.common.hdtrailers.net has been installed.'
  143. 19:12:48 T:3688 M:1018458112   DEBUG: ADDON: cpluff: 'Not all directories were successfully scanned.'
  144. 19:12:48 T:3688 M:1017659392   DEBUG: CWinEventsWin32::WndProcWindow is active
  145. 19:12:48 T:3688 M:1017491456   DEBUG: CWinEventsWin32::WndProcWindow gained focus
  146. 19:12:48 T:3688 M:1017458688   DEBUG: CWinSystemWin32::ResizeInternal - resizing due to size change (-8,-3,1432,847)->(-8,-3,1448,883)
  147. 19:12:48 T:3612 M:1012088832   DEBUG: thread start, auto delete: 0
  148. 19:12:48 T:3688 M:1007923200   DEBUG: CRenderSystemDX::InitRenderSystem - trying D3D9Ex...
  149. 19:12:48 T:3688 M:1000738816   DEBUG: CRenderSystemDX::InitRenderSystem - using D3D9Ex
  150. 19:12:48 T:3688 M:1000648704   DEBUG: CRenderSystemDX::CreateDevice on adapter 0
  151. 19:12:48 T:3688 M:996782080   DEBUG: CRenderSystemDX::CreateDevice - adapter 0: igdumdx32.dll, Mobile Intel(R) 4 Series Express Chipset Family, VendorId 32902, DeviceId 10818
  152. 19:12:48 T:3688 M:996782080   DEBUG: CRenderSystemDX::CreateDevice - using D3DCAPS2_DYNAMICTEXTURES
  153. 19:12:48 T:3688 M:996782080   DEBUG: CRenderSystemDX::CreateDevice - texture caps: 0x0021EC45
  154. 19:12:48 T:3688 M:996782080   DEBUG: CRenderSystemDX::CreateDevice - RENDER_CAPS_DXT
  155. 19:12:48 T:3688 M:996782080   DEBUG: CRenderSystemDX::CreateDevice - RENDER_CAPS_NPOT
  156. 19:12:48 T:3688 M:996782080   DEBUG: CRenderSystemDX::CreateDevice - RENDER_CAPS_DXT_NPOT
  157. 19:12:48 T:3688 M:996749312   DEBUG: CRenderSystemDX::CreateDevice - Intel workaround - specifying minimum pitch for compressed textures.
  158. 19:12:48 T:3688 M:996646912    INFO: load default splash image: C:\Program Files\XBMC\media\Splash.png
  159. 19:12:48 T:3688 M:996405248   DEBUG: Win32DllLoader::Load(special://xbmcbin/system/ImageLib.dll)
  160. 19:12:48 T:3688 M:997421056    INFO: load keymapping
  161. 19:12:48 T:3688 M:997216256    INFO: Loading special://xbmc/system/keymaps/gamepad.xml
  162. 19:12:48 T:3688 M:996388864    INFO: Loading special://xbmc/system/keymaps/joystick.Alienware.Dual.Compatible.Controller.xml
  163. 19:12:48 T:3688 M:996265984    INFO: Loading special://xbmc/system/keymaps/joystick.AppleRemote.xml
  164. 19:12:48 T:3688 M:996052992    INFO: Loading special://xbmc/system/keymaps/joystick.Harmony.xml
  165. 19:12:48 T:3688 M:1008070656    INFO: Loading special://xbmc/system/keymaps/joystick.Interact.AxisPad.xml
  166. 19:12:48 T:3688 M:1008050176    INFO: Loading special://xbmc/system/keymaps/joystick.Logitech.RumblePad.2.xml
  167. 19:12:48 T:3688 M:1008037888    INFO: Loading special://xbmc/system/keymaps/joystick.Microsoft.Xbox.360.Controller.xml
  168. 19:12:48 T:3688 M:1008021504    INFO: Loading special://xbmc/system/keymaps/joystick.Microsoft.Xbox.Controller.S.xml
  169. 19:12:48 T:3688 M:1007996928    INFO: Loading special://xbmc/system/keymaps/joystick.PS3.Remote.Keyboard.xml
  170. 19:12:48 T:3688 M:1007980544    INFO: Loading special://xbmc/system/keymaps/joystick.WiiRemote.xml
  171. 19:12:48 T:3688 M:1008001024    INFO: Loading special://xbmc/system/keymaps/keyboard.xml
  172. 19:12:48 T:3688 M:1007939584    INFO: Loading special://xbmc/system/keymaps/remote.xml
  173. 19:12:48 T:3688 M:1007906816    INFO: Loading special://xbmc/system/IRSSmap.xml
  174. 19:12:48 T:3688 M:1007902720    INFO: * Adding remote mapping for device 'Microsoft MCE'
  175. 19:12:48 T:3688 M:1007902720    INFO: * Adding remote mapping for device 'Abstract'
  176. 19:12:48 T:3688 M:1007902720   DEBUG: CButtonTranslator::Load - no userdata IRSSmap.xml found, skipping
  177. 19:12:48 T:3688 M:1007902720    INFO: GUI format 1440x850 Windowed
  178. 19:12:48 T:3688 M:1007898624  NOTICE: initializing playlistplayer
  179. 19:12:48 T:3688 M:1007898624  NOTICE: DONE initializing playlistplayer
  180. 19:12:48 T:3688 M:1007898624   DEBUG: DPMS: supported power-saving modes: OFF STANDBY
  181. 19:12:48 T:3688 M:1007435776    INFO: Unloading old skin ...
  182. 19:12:48 T:3688 M:1006690304   DEBUG: ------ Window Deinit (Pointer.xml) ------
  183. 19:12:48 T:3688 M:1006678016   DEBUG: ------ Window Deinit (DialogMuteBug.xml) ------
  184. 19:12:48 T:3688 M:1006661632    INFO:   load skin from:C:\Users\Mike\AppData\Roaming\XBMC\addons\skin.transparency
  185. 19:12:48 T:3688 M:1006661632    INFO: Default 4:3 resolution directory is C:\Users\Mike\AppData\Roaming\XBMC\addons\skin.transparency\720p
  186. 19:12:48 T:3688 M:1006661632    INFO: Default 16:9 resolution directory is C:\Users\Mike\AppData\Roaming\XBMC\addons\skin.transparency\720p
  187. 19:12:48 T:3688 M:1006661632    INFO: Loading skin includes from C:\Users\Mike\AppData\Roaming\XBMC\addons\skin.transparency\720p\includes.xml
  188. 19:12:49 T:3688 M:995074048    INFO:   load fonts for skin...
  189. 19:12:49 T:3688 M:995061760    INFO: Loading fonts from C:\Users\Mike\AppData\Roaming\XBMC\addons\skin.transparency\720p\Font.xml
  190. 19:12:49 T:3688 M:987365376    INFO:   load new skin...
  191. 19:12:49 T:3688 M:987365376    INFO: Loading skin file: Home.xml
  192. 19:12:49 T:3688 M:987082752   ERROR: Error evaluating boolean expression Container(5040).HasFocus(5) + [PVR.IsRecording | PVR.HasTimer] + ![Player.HasVideo + !Skin.HasSetting(homepageVideoinfo)] + ![Player.HasAudio + !Skin.HasSetting(homepageMusicinfo)]
  193. 19:12:49 T:3688 M:987070464   ERROR: Error evaluating boolean expression !PVR.IsRecording + PVR.HasTimer
  194. 19:12:49 T:3688 M:986533888    INFO: Loading user windows, path C:\Users\Mike\AppData\Roaming\XBMC\addons\skin.transparency\720p
  195. 19:12:49 T:3688 M:984264704   DEBUG: Load Skin XML: 309.19ms
  196. 19:12:49 T:3688 M:984264704    INFO:   initialize new skin...
  197. 19:12:49 T:3688 M:984264704    INFO: Loading skin file: Pointer.xml
  198. 19:12:49 T:3688 M:982044672   DEBUG: CTextureBundleXBT::OpenBundle - Opened bundle C:\Users\Mike\AppData\Roaming\XBMC\addons\skin.transparency\media\Textures.xbt
  199. 19:12:49 T:3688 M:981950464    INFO: Loading skin file: DialogVolumeBar.xml
  200. 19:12:49 T:3688 M:982044672    INFO: Loading skin file: DialogSeekBar.xml
  201. 19:12:49 T:3688 M:981954560    INFO: Loading skin file: DialogKaiToast.xml
  202. 19:12:49 T:3688 M:981950464    INFO: Loading skin file: DialogMuteBug.xml
  203. 19:12:49 T:3688 M:981893120   DEBUG: CGUIAudioManager::Initialize
  204. 19:12:49 T:3688 M:981893120   DEBUG: CAudioContext::SetActiveDevice - SetActiveDevice from 1 to 2
  205. 19:12:49 T:3688 M:981893120   DEBUG: CAudioContext::RemoveActiveDevice - Removing device 1
  206. 19:12:49 T:3688 M:981753856   DEBUG: CWDSound::direct_sound_enumerator_member_callback - found Device: Primary Sound Driver
  207. 19:12:49 T:3688 M:981753856   DEBUG: CWDSound::direct_sound_enumerator_member_callback - found Device: Speakers (Conexant High Definition SmartAudio 221)
  208. 19:12:49 T:3688 M:981753856   DEBUG: CWDSound::direct_sound_enumerator_member_callback - found Device: Headphones (Conexant High Definition SmartAudio 221)
  209. 19:12:49 T:3688 M:981753856   DEBUG: CWDSound::direct_sound_enumerator_member_callback - found Device: Speakers (Bluetooth AV Audio)
  210. 19:12:49 T:3688 M:981753856   DEBUG: CWDSound::direct_sound_enumerator_member_callback - found Device: Speakers (Bluetooth SCO Audio)
  211. 19:12:49 T:3688 M:981749760   DEBUG: CAudioContext::SetActiveDevice - (default playback device).
  212. 19:12:49 T:3688 M:981598208    INFO: Loading C:\Users\Mike\AppData\Roaming\XBMC\addons\skin.transparency\sounds\sounds.xml
  213. 19:12:49 T:3688 M:981594112    INFO:   skin loaded...
  214. 19:12:49 T:3688 M:981594112   DEBUG: Activating window ID: 12999
  215. 19:12:49 T:3688 M:981594112   DEBUG: Checking if window ID 12999 is locked.
  216. 19:12:49 T:3688 M:981594112   DEBUG: ------ Window Init (Startup.xml) ------
  217. 19:12:49 T:3688 M:981594112    INFO: Loading skin file: Startup.xml
  218. 19:12:49 T:3688 M:981585920    INFO: removing tempfiles
  219. 19:12:49 T:3688 M:981577728  NOTICE: initialize done
  220. 19:12:49 T:3688 M:981577728  NOTICE: Running the application...
  221. 19:12:49 T:3688 M:981577728   DEBUG: CApplication::ExecuteXBMCAction : Translating Skin.SetBool(Startup)
  222. 19:12:49 T:3688 M:981577728   DEBUG: CApplication::ExecuteXBMCAction : To Skin.SetBool(Startup)
  223. 19:12:49 T:3688 M:981278720   DEBUG: CApplication::ExecuteXBMCAction : Translating ReplaceWindow(Home)
  224. 19:12:49 T:3688 M:981278720   DEBUG: CApplication::ExecuteXBMCAction : To ReplaceWindow(Home)
  225. 19:12:49 T:3688 M:981274624   DEBUG: Activating window ID: 10000
  226. 19:12:49 T:3688 M:981274624   DEBUG: Checking if window ID 10000 is locked.
  227. 19:12:49 T:3688 M:981274624   DEBUG: ------ Window Deinit (Startup.xml) ------
  228. 19:12:49 T:3688 M:981274624   DEBUG: ------ Window Init (Home.xml) ------
  229. 19:12:49 T:3688 M:981254144   DEBUG: XBPython::Process - no profile autoexec.py (C:\Users\Mike\AppData\Roaming\XBMC\userdata\autoexec.py) found, skipping
  230. 19:12:49 T:3688 M:981245952   DEBUG: CNetwork::NetworkMessage - Starting network services
  231. 19:12:49 T:3688 M:981241856  NOTICE: ES: Starting event server
  232. 19:12:49 T:3688 M:981204992   DEBUG: CLastfmScrobbler: Clearing session.
  233. 19:12:49 T:3688 M:981200896   DEBUG: CLibrefmScrobbler: Clearing session.
  234. 19:12:49 T:4992 M:981192704   DEBUG: thread start, auto delete: 0
  235. 19:12:49 T:4992 M:981192704  NOTICE: ES: Starting UDP Event server on 0.0.0.0:9777
  236. 19:12:49 T:5860 M:981192704   DEBUG: thread start, auto delete: 0
  237. 19:12:49 T:4992 M:981184512  NOTICE: UDP: Listening on port 9777
  238. 19:12:49 T:5860 M:981180416    INFO: JSONRPC Server: Successfully initialized
  239. 19:12:49 T:5512 M:981004288   DEBUG: thread start, auto delete: 1
  240. 19:12:49 T:576 M:982040576   DEBUG: thread start, auto delete: 0
  241. 19:12:49 T:576 M:982007808   DEBUG: Win32DllLoader::Load(special://xbmcbin/system/libcurl.dll)
  242. 19:12:49 T:576 M:981667840   DEBUG: Win32DllLoader::Load(special://xbmcbin/system/libidn-11.dll)
  243. 19:12:49 T:576 M:981667840   DEBUG: Win32DllLoader::Load(special://xbmcbin/system/libeay32.dll)
  244. 19:12:49 T:576 M:981667840   DEBUG: Win32DllLoader::Load(special://xbmcbin/system/libssl32.dll)
  245. 19:12:49 T:576 M:981200896   DEBUG: Win32DllLoader::Load(ADVAPI32.DLL)
  246. 19:12:49 T:576 M:981200896   DEBUG: Win32DllLoader::Load(KERNEL32.DLL)
  247. 19:12:49 T:576 M:981200896   DEBUG: Win32DllLoader::Load(NETAPI32.DLL)
  248. 19:12:49 T:576 M:981102592   DEBUG: FreeLibrary(NETAPI32.DLL) -> 07F06FF0
  249. 19:12:49 T:576 M:981102592   DEBUG: Win32DllLoader::Unload NETAPI32.DLL
  250. 19:12:49 T:3688 M:980123648   DEBUG: CApplication::ExecuteXBMCAction : Translating RunScript(script.recentlyadded,limit=3&albums=True&totals=True&alarm=720)
  251. 19:12:49 T:3688 M:980123648   DEBUG: CApplication::ExecuteXBMCAction : To RunScript(script.recentlyadded,limit=3&albums=True&totals=True&alarm=720)
  252. 19:12:49 T:3688 M:980123648    INFO: initializing python engine.
  253. 19:12:49 T:3688 M:980123648   DEBUG: Win32DllLoader::Load(special://xbmcbin/system/python/python24.dll)
  254. 19:12:49 T:576 M:979886080   DEBUG: FreeLibrary(ADVAPI32.DLL) -> 07F0C180
  255. 19:12:49 T:576 M:979886080   DEBUG: Win32DllLoader::Unload ADVAPI32.DLL
  256. 19:12:49 T:576 M:979460096   DEBUG: Win32DllLoader::Load(USER32.DLL)
  257. 19:12:49 T:576 M:979365888   DEBUG: FreeLibrary(USER32.DLL) -> 07F0C180
  258. 19:12:49 T:576 M:979365888   DEBUG: Win32DllLoader::Unload USER32.DLL
  259. 19:12:50 T:3688 M:976273408   DEBUG:   msg: 'import site' failed; use -v for traceback
  260. 19:12:50 T:3688 M:976027648   DEBUG: new python thread created. id=1
  261. 19:12:50 T:3688 M:976011264   DEBUG: CApplication::ExecuteXBMCAction : Translating Skin.Reset(Startup)
  262. 19:12:50 T:3688 M:976007168   DEBUG: CApplication::ExecuteXBMCAction : To Skin.Reset(Startup)
  263. 19:12:50 T:3688 M:975273984   DEBUG: CApplication::ExecuteXBMCAction : Translating SetFocus(9000)
  264. 19:12:50 T:3688 M:975273984   DEBUG: CApplication::ExecuteXBMCAction : To SetFocus(9000)
  265. 19:12:50 T:5388 M:974073856   DEBUG: thread start, auto delete: 0
  266. 19:12:50 T:5388 M:972320768   DEBUG: Python thread: start processing
  267. 19:12:50 T:5388 M:970903552   DEBUG:   msg: 'import site' failed; use -v for traceback
  268. 19:12:50 T:5388 M:970792960  NOTICE: -->Python Interpreter Initialized<--
  269. 19:12:50 T:5388 M:970772480   DEBUG: XBPyThread::Process - The source file to load is C:\Users\Mike\AppData\Roaming\XBMC\addons\script.recentlyadded\RecentlyAdded.py
  270. 19:12:50 T:5388 M:970477568   DEBUG: XBPyThread::Process - Setting the Python path to C:\Users\Mike\AppData\Roaming\XBMC\addons\script.recentlyadded;C:\Users\Mike\AppData\Roaming\XBMC\addons\script.module.simplejson\lib;C:\Users\Mike\AppData\Roaming\XBMC\addons\script.module.beautifulsoup\lib;C:\Program Files\XBMC\addons\script.module.pil\lib;C:\Users\Mike\AppData\Roaming\XBMC\addons\script.web.viewer\lib;C:\Users\Mike\AppData\Roaming\XBMC\addons\script.module.elementtree\lib;C:\Program Files\XBMC\addons\script.module.pysqlite\lib;special://xbmc/system/python/DLLs;special://xbmc/system/python/Lib;special://xbmcbin/system/python/python24.zip;special://xbmc/system/python\DLLs;special://xbmc/system/python\lib;special://xbmc/system/python\lib\plat-win;special://xbmc/system/python\lib\lib-tk;C:\Program Files\XBMC
  271. 19:12:50 T:5388 M:970465280   DEBUG: XBPyThread::Process - Entering source directory C:\Users\Mike\AppData\Roaming\XBMC\addons\script.recentlyadded
  272. 19:12:50 T:5512 M:971374592   DEBUG: CImageLoader::DoWork - took 498 ms to load special://skin/backgrounds/movies.png
  273. 19:12:50 T:5512 M:971374592    INFO: WEATHER: Downloading weather
  274. 19:12:50 T:2944 M:971239424   DEBUG: thread start, auto delete: 1
  275. 19:12:50 T:5388 M:976965632   DEBUG: LoadLibraryExA called with flags:
  276.                                              - LOAD_WITH_ALTERED_SEARCH_PATH
  277. 19:12:51 T:5388 M:977207296   DEBUG: Win32DllLoader::Load(special://xbmc/system/python/DLLs\_socket.pyd)
  278. 19:12:51 T:5388 M:977260544   DEBUG: LoadLibraryExA called with flags:
  279.                                              - LOAD_WITH_ALTERED_SEARCH_PATH
  280. 19:12:51 T:5388 M:977260544   DEBUG: Win32DllLoader::Load(special://xbmc/system/python/DLLs\_ssl.pyd)
  281. 19:12:52 T:5388 M:975998976  NOTICE: {'albums': 'True', 'limit': '3', 'alarm': '720', 'totals': 'True'}
  282. 19:12:52 T:3688 M:975605760   DEBUG: HttpApi Start command: SetResponseFormat  paras: SetResponseFormat
  283. 19:12:52 T:3688 M:975888384   DEBUG: HttpApi Start command: SetResponseFormat  paras: SetResponseFormat; OpenRecord;<record>
  284. 19:12:52 T:3688 M:974041088   DEBUG: HttpApi Start command: SetResponseFormat  paras: SetResponseFormat; CloseRecord;</record>
  285. 19:12:52 T:3688 M:976379904   DEBUG: started alarm with name: latestadded
  286. 19:12:52 T:3688 M:976379904   DEBUG: HttpApi Start command: QueryVideoDatabase  paras: QueryVideoDatabase; select count(1), count(playCount), movieview.* from movieview group by lastPlayed
  287. 19:12:52 T:4232 M:976273408   DEBUG: thread start, auto delete: 0
  288. 19:12:52 T:576 M:976392192   DEBUG: FreeLibrary(KERNEL32.DLL) -> 07F0BF50
  289. 19:12:52 T:576 M:976392192   DEBUG: Win32DllLoader::Unload KERNEL32.DLL
  290. 19:12:52 T:3688 M:976281600   DEBUG: HttpApi Start command: QueryVideoDatabase  paras: QueryVideoDatabase; select count(1), count(playCount) from musicvideoview
  291. 19:12:52 T:3688 M:976171008   DEBUG: HttpApi Start command: QueryVideoDatabase  paras: [not recorded]
  292. 19:12:52 T:3688 M:975921152   DEBUG: HttpApi Start command: QueryMusicDatabase  paras: QueryMusicDatabase; select count(1), count(distinct strAlbum), count(distinct strArtist) from songview
  293. 19:12:52 T:3688 M:975867904   DEBUG: HttpApi Start command: QueryVideoDatabase  paras: QueryVideoDatabase; select * from movieview order by idMovie desc limit 3
  294. 19:12:52 T:3688 M:975863808   DEBUG: HttpApi Start command: QueryVideoDatabase  paras: QueryVideoDatabase; select * from episodeview order by idepisode desc limit 3
  295. 19:12:52 T:3688 M:975859712   DEBUG: HttpApi Start command: QueryMusicDatabase  paras: QueryMusicDatabase; select * from albumview order by idAlbum desc limit 3
  296. 19:12:52 T:5388 M:975839232    INFO: Scriptresult: Success
  297. 19:12:52 T:5388 M:975790080    INFO: Python script stopped
  298. 19:12:52 T:5388 M:975790080   DEBUG: Thread 5388 terminating
  299. 19:12:52 T:3688 M:975818752   DEBUG: python thread 1 destructed
  300. 19:12:53 T:3688 M:975523840   DEBUG: SDLKeyboard: scancode: 72, sym: 273, unicode: 0, modifier: 0
  301. 19:12:53 T:3688 M:975519744   DEBUG: CApplication::OnKey: 61478 pressed, action is Up
  302. 19:12:53 T:576 M:974213120   DEBUG: Win32DllLoader::Load(secur32.dll)
  303. 19:12:53 T:576 M:974094336   DEBUG: FileCurl::Open(06ACFCB8) http://feeds.feedburner.com/xbmc
  304. 19:12:53 T:576 M:974069760    INFO: XCURL::DllLibCurlGlobal::easy_aquire - Created session to http://feeds.feedburner.com
  305. 19:12:53 T:5512 M:974028800   DEBUG: FileCurl::Open(0A78FCA8) http://xoap.weather.com/weather/local/UKXX0025?cc=*&unit=m&dayf=4&prod=xoap&link=xoap&par=1004124588&key=079f24145f208494
  306. 19:12:53 T:5512 M:974028800    INFO: XCURL::DllLibCurlGlobal::easy_aquire - Created session to http://xoap.weather.com
  307. 19:12:54 T:576 M:973115392   DEBUG: FileCurl::Close(06ACFCB8) http://feeds.feedburner.com/xbmc
  308. 19:12:54 T:576 M:973115392   DEBUG: Got rss feed: http://feeds.feedburner.com/xbmc
  309. 19:12:54 T:576 M:973041664   DEBUG: RSS feed encoding: UTF-8
  310. 19:12:54 T:576 M:973037568   DEBUG: Parsed rss feed: http://feeds.feedburner.com/xbmc
  311. 19:12:54 T:576 M:973037568   DEBUG: FileCurl::Open(06ACFCB8) http://newsrss.bbc.co.uk/rss/newsonline_uk_edition/england/rss.xml
  312. 19:12:54 T:576 M:973037568    INFO: XCURL::DllLibCurlGlobal::easy_aquire - Created session to http://newsrss.bbc.co.uk
  313. 19:12:54 T:5512 M:973008896   DEBUG: FileCurl::Close(0A78FCA8) http://xoap.weather.com/weather/local/UKXX0025?cc=*&unit=m&dayf=4&prod=xoap&link=xoap&par=1004124588&key=079f24145f208494
  314. 19:12:54 T:5512 M:973008896    INFO: WEATHER: Weather download successful
  315. 19:12:54 T:5512 M:973004800   DEBUG: CZipManager::GetZipList - Processing zip://special%3a%2f%2fxbmc%2fmedia%2fweather%2ezip/
  316. 19:12:54 T:576 M:970891264   DEBUG: FileCurl::Close(06ACFCB8) http://feeds.bbci.co.uk/news/england/rss.xml?edition=uk
  317. 19:12:54 T:576 M:970883072   DEBUG: Got rss feed: http://newsrss.bbc.co.uk/rss/newsonline_uk_edition/england/rss.xml
  318. 19:12:54 T:576 M:970821632   DEBUG: RSS feed encoding: UTF-8
  319. 19:12:54 T:576 M:970821632   DEBUG: Parsed rss feed: http://newsrss.bbc.co.uk/rss/newsonline_uk_edition/england/rss.xml
  320. 19:12:54 T:576 M:970821632   DEBUG: FileCurl::Open(06ACFCB8) http://www.highways.gov.uk/rssfeed/SouthWest.xml
  321. 19:12:54 T:576 M:970821632    INFO: XCURL::DllLibCurlGlobal::easy_aquire - Created session to http://www.highways.gov.uk
  322. 19:12:54 T:576 M:970297344   DEBUG: FileCurl::Close(06ACFCB8) http://www.highways.gov.uk/rssfeed/SouthWest.xml
  323. 19:12:54 T:576 M:970297344   DEBUG: Got rss feed: http://www.highways.gov.uk/rssfeed/SouthWest.xml
  324. 19:12:54 T:576 M:970293248   DEBUG: RSS feed encoding: UTF-8
  325. 19:12:54 T:576 M:970293248   DEBUG: Thread 576 terminating
  326. 19:12:55 T:3688 M:971161600   DEBUG: SDLKeyboard: scancode: 77, sym: 275, unicode: 0, modifier: 0
  327. 19:12:55 T:3688 M:971161600   DEBUG: CApplication::OnKey: 61479 pressed, action is Right
  328. 19:12:55 T:3688 M:970878976   DEBUG: SDLKeyboard: scancode: 77, sym: 275, unicode: 0, modifier: 0
  329. 19:12:55 T:3688 M:970878976   DEBUG: CApplication::OnKey: 61479 pressed, action is Right
  330. 19:12:56 T:3688 M:970539008   DEBUG: SDLKeyboard: scancode: 28, sym: 13, unicode: 13, modifier: 0
  331. 19:12:56 T:3688 M:970539008   DEBUG: CApplication::OnKey: 61453 pressed, action is Select
  332. 19:12:56 T:3688 M:970481664   DEBUG: CApplication::ExecuteXBMCAction : Translating ActivateWindow(VideoLibrary,Addons,return)
  333. 19:12:56 T:3688 M:970477568   DEBUG: CApplication::ExecuteXBMCAction : To ActivateWindow(VideoLibrary,Addons,return)
  334. 19:12:56 T:3688 M:970477568   DEBUG: Activating window ID: 10025
  335. 19:12:56 T:3688 M:970477568   DEBUG: Checking if window ID 10024 is locked.
  336. 19:12:56 T:3688 M:970477568   DEBUG: ------ Window Deinit (Home.xml) ------
  337. 19:12:56 T:3688 M:969703424   DEBUG: ------ Window Init (MyVideoNav.xml) ------
  338. 19:12:56 T:3688 M:969703424    INFO: Loading skin file: MyVideoNav.xml
  339. 19:12:57 T:3688 M:966807552   ERROR: Window Translator: Can't find window tv
  340. 19:12:57 T:3688 M:966799360   ERROR: Error evaluating boolean expression Window.IsVisible(TV) + Control.IsVisible(10)
  341. 19:12:57 T:3688 M:967790592   ERROR: Window Translator: Can't find window tv
  342. 19:12:57 T:3688 M:967782400   ERROR: Error evaluating boolean expression Window.IsVisible(TV) + [Control.IsVisible(14) | Control.IsVisible(15) | Control.IsVisible(16) | Control.IsVisible(17)]
  343. 19:12:57 T:3688 M:967778304   ERROR: Window Translator: Can't find window tv
  344. 19:12:57 T:3688 M:967778304   ERROR: Error evaluating boolean expression Window.IsVisible(TV) + [Control.IsVisible(11) | Control.IsVisible(12) | Control.IsVisible(13)] + !Skin.HasSetting(FanartShort) + !Skin.HasSetting(FanartLong)
  345. 19:12:57 T:3688 M:967778304   ERROR: Window Translator: Can't find window tv
  346. 19:12:57 T:3688 M:967778304   ERROR: Error evaluating boolean expression Window.IsVisible(TV) + [Control.IsVisible(11) | Control.IsVisible(12) | Control.IsVisible(13)] + Skin.HasSetting(FanartShort)
  347. 19:12:57 T:3688 M:967778304   ERROR: Window Translator: Can't find window tv
  348. 19:12:57 T:3688 M:967778304   ERROR: Error evaluating boolean expression Window.IsVisible(TV) + [Control.IsVisible(11) | Control.IsVisible(12) | Control.IsVisible(13)] + Skin.HasSetting(FanartLong)
  349. 19:12:57 T:3688 M:962506752   DEBUG: CGUIMediaWindow::GetDirectory (addons://sources/video/)
  350. 19:12:57 T:3688 M:962506752   DEBUG:   ParentPath = [addons://sources/video/]
  351. 19:12:57 T:3688 M:962371584 WARNING: XFILE::CVideoDatabaseDirectory::GetLabel - Unknown nodetype requested 0
  352. 19:12:57 T:5684 M:962359296   DEBUG: thread start, auto delete: 0
  353. 19:12:57 T:5684 M:962347008 WARNING: XFILE::CFactoryDirectory::Create - Unsupported protocol(script) in script://
  354. 19:12:57 T:5684 M:962338816   DEBUG: Thread 5684 terminating
  355. 19:12:58 T:3688 M:960049152   DEBUG: CApplication::ExecuteXBMCAction : Translating RunScript(script.tvtunes,backend=True)
  356. 19:12:58 T:3688 M:960049152   DEBUG: CApplication::ExecuteXBMCAction : To RunScript(script.tvtunes,backend=True)
  357. 19:12:58 T:3688 M:960049152    INFO: initializing python engine.
  358. 19:12:58 T:3688 M:960049152   DEBUG: new python thread created. id=2
  359. 19:12:58 T:2840 M:960073728   DEBUG: thread start, auto delete: 0
  360. 19:12:58 T:2840 M:960069632   DEBUG: Python thread: start processing
  361. 19:12:58 T:3688 M:960069632   DEBUG: CApplication::ExecuteXBMCAction : Translating SetFocus(50)
  362. 19:12:58 T:3688 M:960069632   DEBUG: CApplication::ExecuteXBMCAction : To SetFocus(50)
  363. 19:12:58 T:2840 M:959971328   DEBUG:   msg: 'import site' failed; use -v for traceback
  364. 19:12:58 T:2840 M:959971328  NOTICE: -->Python Interpreter Initialized<--
  365. 19:12:58 T:2840 M:959971328   DEBUG: XBPyThread::Process - The source file to load is C:\Users\Mike\AppData\Roaming\XBMC\addons\script.tvtunes\default.py
  366. 19:12:58 T:2840 M:959971328   DEBUG: XBPyThread::Process - Setting the Python path to C:\Users\Mike\AppData\Roaming\XBMC\addons\script.tvtunes;C:\Users\Mike\AppData\Roaming\XBMC\addons\script.module.simplejson\lib;C:\Users\Mike\AppData\Roaming\XBMC\addons\script.module.beautifulsoup\lib;C:\Program Files\XBMC\addons\script.module.pil\lib;C:\Users\Mike\AppData\Roaming\XBMC\addons\script.web.viewer\lib;C:\Users\Mike\AppData\Roaming\XBMC\addons\script.module.elementtree\lib;C:\Program Files\XBMC\addons\script.module.pysqlite\lib;special://xbmc/system/python/DLLs;special://xbmc/system/python/Lib;special://xbmcbin/system/python/python24.zip;special://xbmc/system/python\DLLs;special://xbmc/system/python\lib;special://xbmc/system/python\lib\plat-win;special://xbmc/system/python\lib\lib-tk;C:\Program Files\XBMC
  367. 19:12:58 T:2840 M:959967232   DEBUG: XBPyThread::Process - Entering source directory C:\Users\Mike\AppData\Roaming\XBMC\addons\script.tvtunes
  368. 19:12:58 T:2840 M:959954944    INFO: Scriptresult: Success
  369. 19:12:58 T:3688 M:959934464   DEBUG: ADDON: cpluff: 'Could not return information about unknown plug-in C:\Users\Mike\AppData\Roaming\XBMC\addons\script.tvtunes\resources\tvtunes_backend.py.'
  370. 19:12:58 T:3688 M:959934464    INFO: initializing python engine.
  371. 19:12:58 T:3688 M:959934464   DEBUG: new python thread created. id=3
  372. 19:12:58 T:5480 M:959926272   DEBUG: thread start, auto delete: 0
  373. 19:12:58 T:5480 M:959922176   DEBUG: Python thread: start processing
  374. 19:12:58 T:2840 M:959881216    INFO: Python script stopped
  375. 19:12:58 T:2840 M:959881216   DEBUG: Thread 2840 terminating
  376. 19:12:58 T:3688 M:959913984   DEBUG: python thread 2 destructed
  377. 19:12:58 T:5480 M:959913984   DEBUG:   msg: 'import site' failed; use -v for traceback
  378. 19:12:58 T:5480 M:959913984  NOTICE: -->Python Interpreter Initialized<--
  379. 19:12:58 T:5480 M:959913984   DEBUG: XBPyThread::Process - The source file to load is C:\Users\Mike\AppData\Roaming\XBMC\addons\script.tvtunes\resources\tvtunes_backend.py
  380. 19:12:58 T:5480 M:959913984   DEBUG: XBPyThread::Process - Setting the Python path to C:\Users\Mike\AppData\Roaming\XBMC\addons\script.tvtunes\resources;C:\Users\Mike\AppData\Roaming\XBMC\addons\script.module.simplejson\lib;C:\Users\Mike\AppData\Roaming\XBMC\addons\script.module.beautifulsoup\lib;C:\Program Files\XBMC\addons\script.module.pil\lib;C:\Users\Mike\AppData\Roaming\XBMC\addons\script.web.viewer\lib;C:\Users\Mike\AppData\Roaming\XBMC\addons\script.module.elementtree\lib;C:\Program Files\XBMC\addons\script.module.pysqlite\lib;special://xbmc/system/python/DLLs;special://xbmc/system/python/Lib;special://xbmcbin/system/python/python24.zip;special://xbmc/system/python\DLLs;special://xbmc/system/python\lib;special://xbmc/system/python\lib\plat-win;special://xbmc/system/python\lib\lib-tk;C:\Program Files\XBMC
  381. 19:12:58 T:5480 M:959913984   DEBUG: XBPyThread::Process - Entering source directory C:\Users\Mike\AppData\Roaming\XBMC\addons\script.tvtunes\resources
  382. 19:12:58 T:5480 M:959905792  NOTICE: loop=False&downvolume=0&smb=False&user=&password=
  383. 19:12:58 T:5480 M:959905792  NOTICE: ### starting TvTunes Backend ###
  384. 19:12:58 T:5480 M:959901696  NOTICE: ### current volume: 100.0%
  385. 19:12:58 T:5480 M:959893504    INFO: Scriptresult: Success
  386. 19:12:58 T:5480 M:959893504  NOTICE: waiting for thread - Thread-1
  387. 19:12:59 T:3688 M:960528384   DEBUG: SDLKeyboard: scancode: 80, sym: 274, unicode: 0, modifier: 0
  388. 19:12:59 T:3688 M:960528384   DEBUG: CApplication::OnKey: 61480 pressed, action is Down
  389. 19:12:59 T:3688 M:960421888   DEBUG: SDLKeyboard: scancode: 80, sym: 274, unicode: 0, modifier: 0
  390. 19:12:59 T:3688 M:960421888   DEBUG: CApplication::OnKey: 61480 pressed, action is Down
  391. 19:12:59 T:3688 M:960249856   DEBUG: SDLKeyboard: scancode: 80, sym: 274, unicode: 0, modifier: 0
  392. 19:12:59 T:3688 M:960249856   DEBUG: CApplication::OnKey: 61480 pressed, action is Down
  393. 19:12:59 T:3688 M:960225280   DEBUG: SDLKeyboard: scancode: 80, sym: 274, unicode: 0, modifier: 0
  394. 19:12:59 T:3688 M:960225280   DEBUG: CApplication::OnKey: 61480 pressed, action is Down
  395. 19:12:59 T:3688 M:959299584   DEBUG: SDLKeyboard: scancode: 80, sym: 274, unicode: 0, modifier: 0
  396. 19:12:59 T:3688 M:959299584   DEBUG: CApplication::OnKey: 61480 pressed, action is Down
  397. 19:13:00 T:3688 M:959397888   DEBUG: SDLKeyboard: scancode: 80, sym: 274, unicode: 0, modifier: 0
  398. 19:13:00 T:3688 M:959397888   DEBUG: CApplication::OnKey: 61480 pressed, action is Down
  399. 19:13:01 T:3688 M:959488000   DEBUG: SDLKeyboard: scancode: 28, sym: 13, unicode: 13, modifier: 0
  400. 19:13:01 T:3688 M:959488000   DEBUG: CApplication::OnKey: 61453 pressed, action is Select
  401. 19:13:01 T:3688 M:959455232   DEBUG: CGUIMediaWindow::GetDirectory (plugin://plugin.video.youtube/)
  402. 19:13:01 T:3688 M:959455232   DEBUG:   ParentPath = [addons://sources/video/]
  403. 19:13:01 T:2944 M:959442944   DEBUG: XFILE::CPluginDirectory::StartScript - calling plugin YouTube('plugin://plugin.video.youtube/','0','')
  404. 19:13:01 T:2944 M:959438848    INFO: initializing python engine.
  405. 19:13:01 T:2944 M:959438848   DEBUG: new python thread created. id=4
  406. 19:13:01 T:2944 M:959422464   DEBUG: XFILE::CPluginDirectory::WaitOnScriptResult - waiting on the YouTube plugin...
  407. 19:13:01 T:2052 M:959422464   DEBUG: thread start, auto delete: 0
  408. 19:13:01 T:2052 M:959418368   DEBUG: Python thread: start processing
  409. 19:13:01 T:2052 M:959320064   DEBUG:   msg: 'import site' failed; use -v for traceback
  410. 19:13:01 T:2052 M:959320064  NOTICE: -->Python Interpreter Initialized<--
  411. 19:13:01 T:2052 M:959320064   DEBUG: XBPyThread::Process - The source file to load is C:\Users\Mike\AppData\Roaming\XBMC\addons\plugin.video.youtube\default.py
  412. 19:13:01 T:2052 M:959320064   DEBUG: XBPyThread::Process - Setting the Python path to C:\Users\Mike\AppData\Roaming\XBMC\addons\plugin.video.youtube;C:\Users\Mike\AppData\Roaming\XBMC\addons\script.module.simplejson\lib;C:\Users\Mike\AppData\Roaming\XBMC\addons\script.module.beautifulsoup\lib;C:\Program Files\XBMC\addons\script.module.pil\lib;C:\Users\Mike\AppData\Roaming\XBMC\addons\script.web.viewer\lib;C:\Users\Mike\AppData\Roaming\XBMC\addons\script.module.elementtree\lib;C:\Program Files\XBMC\addons\script.module.pysqlite\lib;special://xbmc/system/python/DLLs;special://xbmc/system/python/Lib;special://xbmcbin/system/python/python24.zip;special://xbmc/system/python\DLLs;special://xbmc/system/python\lib;special://xbmc/system/python\lib\plat-win;special://xbmc/system/python\lib\lib-tk;C:\Program Files\XBMC
  413. 19:13:01 T:2052 M:959320064   DEBUG: XBPyThread::Process - Entering source directory C:\Users\Mike\AppData\Roaming\XBMC\addons\plugin.video.youtube
  414. 19:13:01 T:2052 M:959307776  NOTICE: YouTube-2.0.5
  415. 19:13:01 T:3688 M:958300160   DEBUG: ------ Window Init (DialogBusy.xml) ------
  416. 19:13:01 T:3688 M:958300160    INFO: Loading skin file: DialogBusy.xml
  417. 19:13:02 T:2944 M:956067840    INFO: Loading skin file: DialogProgress.xml
  418. 19:13:02 T:2944 M:956063744   DEBUG: ------ Window Init (DialogProgress.xml) ------
  419. 19:13:02 T:2944 M:955604992   DEBUG: XFILE::CPluginDirectory::WaitOnScriptResult- plugin returned successfully
  420. 19:13:02 T:2052 M:955604992    INFO: Scriptresult: Success
  421. 19:13:02 T:3688 M:955588608   DEBUG: Saving fileitems [plugin://plugin.video.youtube/]
  422. 19:13:02 T:3688 M:955584512   DEBUG:   -- items: 11, sort method: 0, ascending: false
  423. 19:13:02 T:2052 M:955580416    INFO: Python script stopped
  424. 19:13:02 T:2052 M:955580416   DEBUG: Thread 2052 terminating
  425. 19:13:02 T:3688 M:955645952 WARNING: XFILE::CVideoDatabaseDirectory::GetLabel - Unknown nodetype requested 6
  426. 19:13:02 T:4684 M:955633664   DEBUG: thread start, auto delete: 0
  427. 19:13:02 T:4684 M:955621376   DEBUG: Thread 4684 terminating
  428. 19:13:02 T:3688 M:955625472   DEBUG: python thread 4 destructed
  429. 19:13:03 T:3688 M:956235776   DEBUG: ------ Window Deinit (DialogProgress.xml) ------
  430. 19:13:03 T:2944 M:956243968   DEBUG: Re-caching image 'C:\Users\Mike\AppData\Roaming\XBMC\addons\plugin.video.youtube\thumbnails\downloads.png' as '1/1d8c1f28.png' full size
  431. 19:13:03 T:2944 M:956243968    INFO: Caching image from: C:\Users\Mike\AppData\Roaming\XBMC\addons\plugin.video.youtube\thumbnails\downloads.png to special://masterprofile/Thumbnails/1/1d8c1f28.png
  432. 19:13:03 T:3688 M:955961344   DEBUG: ------ Window Deinit (DialogBusy.xml) ------
  433. 19:13:03 T:2944 M:955416576   DEBUG: Creating DDS version of: special://masterprofile/Thumbnails/1/1d8c1f28.png
  434. 19:13:03 T:2944 M:956071936   DEBUG: CDDSImage::Compress - using DXT5 (min error is: 6.38:0.10)
  435. 19:13:04 T:3688 M:955682816   DEBUG: SDLKeyboard: scancode: 72, sym: 273, unicode: 0, modifier: 0
  436. 19:13:04 T:3688 M:955682816   DEBUG: CApplication::OnKey: 61478 pressed, action is Up
  437. 19:13:04 T:2944 M:955674624   DEBUG: Re-caching image 'C:\Users\Mike\AppData\Roaming\XBMC\addons\plugin.video.youtube\thumbnails\uploads.png' as '0/004f8f0b.png' full size
  438. 19:13:04 T:2944 M:955670528    INFO: Caching image from: C:\Users\Mike\AppData\Roaming\XBMC\addons\plugin.video.youtube\thumbnails\uploads.png to special://masterprofile/Thumbnails/0/004f8f0b.png
  439. 19:13:05 T:3688 M:955424768   DEBUG: SDLKeyboard: scancode: 72, sym: 273, unicode: 0, modifier: 0
  440. 19:13:05 T:3688 M:955424768   DEBUG: CApplication::OnKey: 61478 pressed, action is Up
  441. 19:13:05 T:3508 M:955674624   DEBUG: thread start, auto delete: 1
  442. 19:13:05 T:3508 M:955523072   DEBUG: Creating DDS version of: special://masterprofile/Thumbnails/0/004f8f0b.png
  443. 19:13:05 T:3688 M:955523072   DEBUG: SDLKeyboard: scancode: 72, sym: 273, unicode: 0, modifier: 0
  444. 19:13:05 T:3688 M:955523072   DEBUG: CApplication::OnKey: 61478 pressed, action is Up
  445. 19:13:05 T:3688 M:955437056   DEBUG: SDLKeyboard: scancode: 72, sym: 273, unicode: 0, modifier: 0
  446. 19:13:05 T:3688 M:955437056   DEBUG: CApplication::OnKey: 61478 pressed, action is Up
  447. 19:13:05 T:3688 M:956039168   DEBUG: SDLKeyboard: scancode: 72, sym: 273, unicode: 0, modifier: 0
  448. 19:13:05 T:3688 M:956039168   DEBUG: CApplication::OnKey: 61478 pressed, action is Up
  449. 19:13:05 T:3688 M:955961344   DEBUG: SDLKeyboard: scancode: 72, sym: 273, unicode: 0, modifier: 0
  450. 19:13:05 T:3688 M:956022784   DEBUG: CApplication::OnKey: 61478 pressed, action is Up
  451. 19:13:06 T:3508 M:956289024   DEBUG: CDDSImage::Compress - using DXT5 (min error is: 11.05:1.51)
  452. 19:13:06 T:3508 M:956219392   DEBUG: Re-caching image 'C:\Users\Mike\AppData\Roaming\XBMC\addons\plugin.video.youtube\thumbnails\subscriptions.png' as 'b/b9251f25.png' full size
  453. 19:13:06 T:3508 M:956219392    INFO: Caching image from: C:\Users\Mike\AppData\Roaming\XBMC\addons\plugin.video.youtube\thumbnails\subscriptions.png to special://masterprofile/Thumbnails/b/b9251f25.png
  454. 19:13:06 T:3688 M:956166144   DEBUG: SDLKeyboard: scancode: 72, sym: 273, unicode: 0, modifier: 0
  455. 19:13:06 T:3688 M:956166144   DEBUG: CApplication::OnKey: 61478 pressed, action is Up
  456. 19:13:06 T:3508 M:956174336   DEBUG: Re-caching image 'C:\Users\Mike\AppData\Roaming\XBMC\addons\plugin.video.youtube\thumbnails\playlists.png' as '0/004afa14.png' full size
  457. 19:13:06 T:3508 M:956174336    INFO: Caching image from: C:\Users\Mike\AppData\Roaming\XBMC\addons\plugin.video.youtube\thumbnails\playlists.png to special://masterprofile/Thumbnails/0/004afa14.png
  458. 19:13:06 T:3508 M:955883520   DEBUG: Re-caching image 'C:\Users\Mike\AppData\Roaming\XBMC\addons\plugin.video.youtube\thumbnails\favorites.png' as '7/7baafdb7.png' full size
  459. 19:13:06 T:3508 M:955883520    INFO: Caching image from: C:\Users\Mike\AppData\Roaming\XBMC\addons\plugin.video.youtube\thumbnails\favorites.png to special://masterprofile/Thumbnails/7/7baafdb7.png
  460. 19:13:06 T:3508 M:955662336   DEBUG: Re-caching image 'C:\Users\Mike\AppData\Roaming\XBMC\addons\plugin.video.youtube\thumbnails\contacts.png' as 'd/d3090ca0.png' full size
  461. 19:13:06 T:3508 M:955662336    INFO: Caching image from: C:\Users\Mike\AppData\Roaming\XBMC\addons\plugin.video.youtube\thumbnails\contacts.png to special://masterprofile/Thumbnails/d/d3090ca0.png
  462. 19:13:06 T:3508 M:955559936   DEBUG: Re-caching image 'C:\Users\Mike\AppData\Roaming\XBMC\addons\plugin.video.youtube\thumbnails\recommended.png' as '6/69e42dc3.png' full size
  463. 19:13:06 T:3508 M:955559936    INFO: Caching image from: C:\Users\Mike\AppData\Roaming\XBMC\addons\plugin.video.youtube\thumbnails\recommended.png to special://masterprofile/Thumbnails/6/69e42dc3.png
  464. 19:13:06 T:3508 M:955432960   DEBUG: Creating DDS version of: special://masterprofile/Thumbnails/b/b9251f25.png
  465. 19:13:07 T:3508 M:955236352   DEBUG: CDDSImage::Compress - using DXT3 (min error is: 4.21:0.13)
  466. 19:13:07 T:2944 M:955166720   DEBUG: Re-caching image 'C:\Users\Mike\AppData\Roaming\XBMC\addons\plugin.video.youtube\thumbnails\explore.png' as '0/036b7ac0.png' full size
  467. 19:13:07 T:2944 M:955166720    INFO: Caching image from: C:\Users\Mike\AppData\Roaming\XBMC\addons\plugin.video.youtube\thumbnails\explore.png to special://masterprofile/Thumbnails/0/036b7ac0.png
  468. 19:13:07 T:2944 M:955076608   DEBUG: Creating DDS version of: special://masterprofile/Thumbnails/0/004afa14.png
  469. 19:13:07 T:3688 M:955113472   DEBUG: SDLKeyboard: scancode: 28, sym: 13, unicode: 13, modifier: 0
  470. 19:13:07 T:3688 M:955113472   DEBUG: CApplication::OnKey: 61453 pressed, action is Select
  471. 19:13:07 T:3688 M:955064320   DEBUG: CGUIMediaWindow::GetDirectory (plugin://plugin.video.youtube/?path=/root/explore&login=false&)
  472. 19:13:07 T:3688 M:955064320   DEBUG:   ParentPath = [plugin://plugin.video.youtube/]
  473. 19:13:07 T:3508 M:955064320   DEBUG: XFILE::CPluginDirectory::StartScript - calling plugin YouTube('plugin://plugin.video.youtube/','0','?path=/root/explore&login=false&')
  474. 19:13:07 T:3508 M:955064320    INFO: initializing python engine.
  475. 19:13:07 T:3508 M:955064320   DEBUG: new python thread created. id=5
  476. 19:13:07 T:3508 M:954802176   DEBUG: XFILE::CPluginDirectory::WaitOnScriptResult - waiting on the YouTube plugin...
  477. 19:13:07 T:3588 M:954970112   DEBUG: thread start, auto delete: 0
  478. 19:13:07 T:3588 M:954806272   DEBUG: Python thread: start processing
  479. 19:13:07 T:3588 M:954949632   DEBUG:   msg: 'import site' failed; use -v for traceback
  480. 19:13:07 T:3588 M:954949632  NOTICE: -->Python Interpreter Initialized<--
  481. 19:13:07 T:3588 M:954949632   DEBUG: XBPyThread::Process - The source file to load is C:\Users\Mike\AppData\Roaming\XBMC\addons\plugin.video.youtube\default.py
  482. 19:13:07 T:3588 M:954949632   DEBUG: XBPyThread::Process - Setting the Python path to C:\Users\Mike\AppData\Roaming\XBMC\addons\plugin.video.youtube;C:\Users\Mike\AppData\Roaming\XBMC\addons\script.module.simplejson\lib;C:\Users\Mike\AppData\Roaming\XBMC\addons\script.module.beautifulsoup\lib;C:\Program Files\XBMC\addons\script.module.pil\lib;C:\Users\Mike\AppData\Roaming\XBMC\addons\script.web.viewer\lib;C:\Users\Mike\AppData\Roaming\XBMC\addons\script.module.elementtree\lib;C:\Program Files\XBMC\addons\script.module.pysqlite\lib;special://xbmc/system/python/DLLs;special://xbmc/system/python/Lib;special://xbmcbin/system/python/python24.zip;special://xbmc/system/python\DLLs;special://xbmc/system/python\lib;special://xbmc/system/python\lib\plat-win;special://xbmc/system/python\lib\lib-tk;C:\Program Files\XBMC
  483. 19:13:07 T:3588 M:954949632   DEBUG: XBPyThread::Process - Entering source directory C:\Users\Mike\AppData\Roaming\XBMC\addons\plugin.video.youtube
  484. 19:13:07 T:3588 M:954937344  NOTICE: YouTube-2.0.5
  485. 19:13:07 T:2944 M:954601472   DEBUG: CDDSImage::Compress - using DXT5 (min error is: 9.77:1.45)
  486. 19:13:07 T:2944 M:954376192   DEBUG: Creating DDS version of: special://masterprofile/Thumbnails/7/7baafdb7.png
  487. 19:13:08 T:3688 M:954957824   DEBUG: ------ Window Init (DialogBusy.xml) ------
  488. 19:13:08 T:3508 M:954499072   DEBUG: XFILE::CPluginDirectory::WaitOnScriptResult- plugin returned successfully
  489. 19:13:08 T:3588 M:954499072    INFO: Scriptresult: Success
  490. 19:13:08 T:3588 M:954494976    INFO: Python script stopped
  491. 19:13:08 T:3588 M:954494976   DEBUG: Thread 3588 terminating
  492. 19:13:08 T:3688 M:954589184 WARNING: XFILE::CVideoDatabaseDirectory::GetLabel - Unknown nodetype requested 6
  493. 19:13:08 T:528 M:954568704   DEBUG: thread start, auto delete: 0
  494. 19:13:08 T:528 M:954441728   DEBUG: Thread 528 terminating
  495. 19:13:08 T:3688 M:954441728   DEBUG: python thread 5 destructed
  496. 19:13:08 T:3688 M:954466304   DEBUG: ------ Window Deinit (DialogBusy.xml) ------
  497. 19:13:09 T:2944 M:955101184   DEBUG: CDDSImage::Compress - using DXT5 (min error is: 16.40:1.39)
  498. 19:13:09 T:2944 M:954720256   DEBUG: Creating DDS version of: special://masterprofile/Thumbnails/d/d3090ca0.png
  499. 19:13:10 T:3688 M:954871808   DEBUG: SDLKeyboard: scancode: 80, sym: 274, unicode: 0, modifier: 0
  500. 19:13:10 T:3688 M:954871808   DEBUG: CApplication::OnKey: 61480 pressed, action is Down
  501. 19:13:10 T:3688 M:954867712   DEBUG: SDLKeyboard: scancode: 80, sym: 274, unicode: 0, modifier: 0
  502. 19:13:10 T:3688 M:954867712   DEBUG: CApplication::OnKey: 61480 pressed, action is Down
  503. 19:13:10 T:3688 M:954793984   DEBUG: SDLKeyboard: scancode: 80, sym: 274, unicode: 0, modifier: 0
  504. 19:13:10 T:3688 M:954793984   DEBUG: CApplication::OnKey: 61480 pressed, action is Down
  505. 19:13:10 T:2944 M:954753024   DEBUG: CDDSImage::Compress - using DXT3 (min error is: 8.04:0.52)
  506. 19:13:10 T:2944 M:954638336   DEBUG: Creating DDS version of: special://masterprofile/Thumbnails/6/69e42dc3.png
  507. 19:13:10 T:3688 M:954609664   DEBUG: SDLKeyboard: scancode: 80, sym: 274, unicode: 0, modifier: 0
  508. 19:13:10 T:3688 M:954609664   DEBUG: CApplication::OnKey: 61480 pressed, action is Down
  509. 19:13:11 T:2944 M:954867712   DEBUG: CDDSImage::Compress - using DXT5 (min error is: 14.40:1.59)
  510. 19:13:11 T:2944 M:954769408   DEBUG: Creating DDS version of: special://masterprofile/Thumbnails/0/036b7ac0.png
  511. 19:13:11 T:3688 M:954769408   DEBUG: SDLKeyboard: scancode: 28, sym: 13, unicode: 13, modifier: 0
  512. 19:13:11 T:3688 M:954769408   DEBUG: CApplication::OnKey: 61453 pressed, action is Select
  513. 19:13:11 T:3688 M:954740736   DEBUG: CGUIMediaWindow::GetDirectory (plugin://plugin.video.youtube/?path=/root/explore/shows&scraper=shows&login=false&)
  514. 19:13:11 T:3688 M:954740736   DEBUG:   ParentPath = [plugin://plugin.video.youtube/?path=/root/explore&login=false&]
  515. 19:13:11 T:3508 M:954740736   DEBUG: XFILE::CPluginDirectory::StartScript - calling plugin YouTube('plugin://plugin.video.youtube/','0','?path=/root/explore/shows&scraper=shows&login=false&')
  516. 19:13:11 T:3508 M:954740736    INFO: initializing python engine.
  517. 19:13:11 T:3508 M:954740736   DEBUG: new python thread created. id=6
  518. 19:13:11 T:3508 M:954732544   DEBUG: XFILE::CPluginDirectory::WaitOnScriptResult - waiting on the YouTube plugin...
  519. 19:13:11 T:3064 M:954728448   DEBUG: thread start, auto delete: 0
  520. 19:13:11 T:3064 M:954724352   DEBUG: Python thread: start processing
  521. 19:13:11 T:3064 M:954626048   DEBUG:   msg: 'import site' failed; use -v for traceback
  522. 19:13:11 T:3064 M:954626048  NOTICE: -->Python Interpreter Initialized<--
  523. 19:13:11 T:3064 M:954626048   DEBUG: XBPyThread::Process - The source file to load is C:\Users\Mike\AppData\Roaming\XBMC\addons\plugin.video.youtube\default.py
  524. 19:13:11 T:3064 M:954626048   DEBUG: XBPyThread::Process - Setting the Python path to C:\Users\Mike\AppData\Roaming\XBMC\addons\plugin.video.youtube;C:\Users\Mike\AppData\Roaming\XBMC\addons\script.module.simplejson\lib;C:\Users\Mike\AppData\Roaming\XBMC\addons\script.module.beautifulsoup\lib;C:\Program Files\XBMC\addons\script.module.pil\lib;C:\Users\Mike\AppData\Roaming\XBMC\addons\script.web.viewer\lib;C:\Users\Mike\AppData\Roaming\XBMC\addons\script.module.elementtree\lib;C:\Program Files\XBMC\addons\script.module.pysqlite\lib;special://xbmc/system/python/DLLs;special://xbmc/system/python/Lib;special://xbmcbin/system/python/python24.zip;special://xbmc/system/python\DLLs;special://xbmc/system/python\lib;special://xbmc/system/python\lib\plat-win;special://xbmc/system/python\lib\lib-tk;C:\Program Files\XBMC
  525. 19:13:11 T:3064 M:954626048   DEBUG: XBPyThread::Process - Entering source directory C:\Users\Mike\AppData\Roaming\XBMC\addons\plugin.video.youtube
  526. 19:13:11 T:3064 M:954613760  NOTICE: YouTube-2.0.5
  527. 19:13:11 T:2944 M:953925632   DEBUG: CDDSImage::Compress - using DXT5 (min error is: 7.70:0.73)
  528. 19:13:11 T:2944 M:953856000   DEBUG: Re-caching image 'C:\Users\Mike\AppData\Roaming\XBMC\addons\plugin.video.youtube\thumbnails\feeds.png' as 'd/d697a8c0.png' full size
  529. 19:13:11 T:2944 M:953856000    INFO: Caching image from: C:\Users\Mike\AppData\Roaming\XBMC\addons\plugin.video.youtube\thumbnails\feeds.png to special://masterprofile/Thumbnails/d/d697a8c0.png
  530. 19:13:11 T:3688 M:953683968   DEBUG: ------ Window Init (DialogBusy.xml) ------
  531. 19:13:11 T:2944 M:953675776   DEBUG: Re-caching image 'C:\Users\Mike\AppData\Roaming\XBMC\addons\plugin.video.youtube\thumbnails\movies.png' as '8/879a7165.png' full size
  532. 19:13:11 T:2944 M:953675776    INFO: Caching image from: C:\Users\Mike\AppData\Roaming\XBMC\addons\plugin.video.youtube\thumbnails\movies.png to special://masterprofile/Thumbnails/8/879a7165.png
  533. 19:13:12 T:2944 M:954654720   DEBUG: Re-caching image 'C:\Users\Mike\AppData\Roaming\XBMC\addons\plugin.video.youtube\thumbnails\shows.png' as '6/6a568f2a.png' full size
  534. 19:13:12 T:2944 M:954650624    INFO: Caching image from: C:\Users\Mike\AppData\Roaming\XBMC\addons\plugin.video.youtube\thumbnails\shows.png to special://masterprofile/Thumbnails/6/6a568f2a.png
  535. 19:13:12 T:2944 M:953655296   DEBUG: Creating DDS version of: special://masterprofile/Thumbnails/d/d697a8c0.png
  536. 19:13:12 T:2944 M:953655296   DEBUG: CDDSImage::Compress - using DXT5 (min error is: 11.95:1.40)
  537. 19:13:12 T:2944 M:953585664   DEBUG: Creating DDS version of: special://masterprofile/Thumbnails/8/879a7165.png
  538. 19:13:12 T:3508 M:953614336    INFO: Loading skin file: DialogProgress.xml
  539. 19:13:12 T:3508 M:953610240   DEBUG: ------ Window Init (DialogProgress.xml) ------
  540. 19:13:13 T:3688 M:953720832   DEBUG: ------ Window Deinit (DialogBusy.xml) ------
  541. 19:13:13 T:2944 M:952647680   DEBUG: CDDSImage::Compress - using DXT5 (min error is: 17.08:1.24)
  542. 19:13:13 T:2944 M:952250368   DEBUG: Creating DDS version of: special://masterprofile/Thumbnails/6/6a568f2a.png
  543. 19:13:14 T:2944 M:951300096   DEBUG: CDDSImage::Compress - using DXT3 (min error is: 6.93:0.58)
  544. 19:13:15 T:3508 M:953114624   DEBUG: XFILE::CPluginDirectory::WaitOnScriptResult- plugin returned successfully
  545. 19:13:15 T:3064 M:953114624    INFO: Scriptresult: Success
  546. 19:13:15 T:3064 M:953106432    INFO: Python script stopped
  547. 19:13:15 T:3064 M:953106432   DEBUG: Thread 3064 terminating
  548. 19:13:15 T:3688 M:953139200 WARNING: XFILE::CVideoDatabaseDirectory::GetLabel - Unknown nodetype requested 6
  549. 19:13:15 T:5668 M:953126912   DEBUG: thread start, auto delete: 0
  550. 19:13:15 T:3688 M:953090048   DEBUG: python thread 6 destructed
  551. 19:13:15 T:5668 M:953090048   DEBUG: Thread 5668 terminating
  552. 19:13:16 T:3688 M:953159680   DEBUG: ------ Window Deinit (DialogProgress.xml) ------
  553. 19:13:16 T:3688 M:953200640   DEBUG: SDLKeyboard: scancode: 80, sym: 274, unicode: 0, modifier: 0
  554. 19:13:16 T:3688 M:953200640   DEBUG: CApplication::OnKey: 61480 pressed, action is Down
  555. 19:13:17 T:3688 M:953212928   DEBUG: SDLKeyboard: scancode: 80, sym: 274, unicode: 0, modifier: 0
  556. 19:13:17 T:3688 M:953212928   DEBUG: CApplication::OnKey: 61480 pressed, action is Down
  557. 19:13:17 T:3688 M:953221120   DEBUG: SDLKeyboard: scancode: 80, sym: 274, unicode: 0, modifier: 0
  558. 19:13:17 T:3688 M:953221120   DEBUG: CApplication::OnKey: 61480 pressed, action is Down
  559. 19:13:17 T:3688 M:952696832   DEBUG: SDLKeyboard: scancode: 28, sym: 13, unicode: 13, modifier: 0
  560. 19:13:17 T:3688 M:952696832   DEBUG: CApplication::OnKey: 61453 pressed, action is Select
  561. 19:13:17 T:3688 M:952668160   DEBUG: CGUIMediaWindow::GetDirectory (plugin://plugin.video.youtube/?path=/root/explore/shows&category=%2Fshows%3Fbid%3D4od%26amp%3Bfeature%3Dsh_c%26amp%3Bpt%3Db%26amp%3Bl%3Den&scraper=shows&login=true&)
  562. 19:13:17 T:3688 M:952668160   DEBUG:   ParentPath = [plugin://plugin.video.youtube/?path=/root/explore/shows&scraper=shows&login=false&]
  563. 19:13:17 T:5512 M:952668160   DEBUG: XFILE::CPluginDirectory::StartScript - calling plugin YouTube('plugin://plugin.video.youtube/','0','?path=/root/explore/shows&category=%2Fshows%3Fbid%3D4od%26amp%3Bfeature%3Dsh_c%26amp%3Bpt%3Db%26amp%3Bl%3Den&scraper=shows&login=true&')
  564. 19:13:17 T:5512 M:952668160    INFO: initializing python engine.
  565. 19:13:17 T:5512 M:952668160   DEBUG: new python thread created. id=7
  566. 19:13:17 T:5512 M:952659968   DEBUG: XFILE::CPluginDirectory::WaitOnScriptResult - waiting on the YouTube plugin...
  567. 19:13:17 T:5172 M:952655872   DEBUG: thread start, auto delete: 0
  568. 19:13:17 T:5172 M:952651776   DEBUG: Python thread: start processing
  569. 19:13:18 T:5172 M:952553472   DEBUG:   msg: 'import site' failed; use -v for traceback
  570. 19:13:18 T:5172 M:952553472  NOTICE: -->Python Interpreter Initialized<--
  571. 19:13:18 T:5172 M:952553472   DEBUG: XBPyThread::Process - The source file to load is C:\Users\Mike\AppData\Roaming\XBMC\addons\plugin.video.youtube\default.py
  572. 19:13:18 T:5172 M:952553472   DEBUG: XBPyThread::Process - Setting the Python path to C:\Users\Mike\AppData\Roaming\XBMC\addons\plugin.video.youtube;C:\Users\Mike\AppData\Roaming\XBMC\addons\script.module.simplejson\lib;C:\Users\Mike\AppData\Roaming\XBMC\addons\script.module.beautifulsoup\lib;C:\Program Files\XBMC\addons\script.module.pil\lib;C:\Users\Mike\AppData\Roaming\XBMC\addons\script.web.viewer\lib;C:\Users\Mike\AppData\Roaming\XBMC\addons\script.module.elementtree\lib;C:\Program Files\XBMC\addons\script.module.pysqlite\lib;special://xbmc/system/python/DLLs;special://xbmc/system/python/Lib;special://xbmcbin/system/python/python24.zip;special://xbmc/system/python\DLLs;special://xbmc/system/python\lib;special://xbmc/system/python\lib\plat-win;special://xbmc/system/python\lib\lib-tk;C:\Program Files\XBMC
  573. 19:13:18 T:5172 M:952549376   DEBUG: XBPyThread::Process - Entering source directory C:\Users\Mike\AppData\Roaming\XBMC\addons\plugin.video.youtube
  574. 19:13:18 T:5172 M:952537088  NOTICE: YouTube-2.0.5
  575. 19:13:18 T:3688 M:952111104   DEBUG: ------ Window Init (DialogBusy.xml) ------
  576. 19:13:18 T:5172 M:951525376    INFO: -->Python script returned the following error<--
  577. 19:13:18 T:5172 M:951525376   ERROR: Error Type: urllib2.HTTPError
  578. 19:13:18 T:5172 M:951525376   ERROR: Error Contents: HTTP Error 404: Not Found
  579. 19:13:19 T:5172 M:951291904   ERROR: Traceback (most recent call last):
  580.                                               File "C:\Users\Mike\AppData\Roaming\XBMC\addons\plugin.video.youtube\default.py", line 50, in ?
  581.                                                 navigator.listMenu(params)
  582.                                               File "C:\Users\Mike\AppData\Roaming\XBMC\addons\plugin.video.youtube\YouTubeNavigation.py", line 117, in listMenu
  583.                                                 self.scrape(params)
  584.                                               File "C:\Users\Mike\AppData\Roaming\XBMC\addons\plugin.video.youtube\YouTubeNavigation.py", line 391, in scrape
  585.                                                 ( results, status ) = scraper.scrape(params)
  586.                                               File "C:\Users\Mike\AppData\Roaming\XBMC\addons\plugin.video.youtube\YouTubeScraperCore.py", line 889, in scrape
  587.                                                 return self.scrapePageinator(params)
  588.                                               File "C:\Users\Mike\AppData\Roaming\XBMC\addons\plugin.video.youtube\YouTubeScraperCore.py", line 619, in scrapePageinator
  589.                                                 html = self._fetchPage(url, params)
  590.                                               File "C:\Users\Mike\AppData\Roaming\XBMC\addons\plugin.video.youtube\YouTubeScraperCore.py", line 580, in _fetchPage
  591.                                                 con = urllib2.urlopen(url);
  592.                                               File "special://xbmc/system/python/Lib\urllib2.py", line 130, in urlopen
  593.                                                 return _opener.open(url, data)
  594.                                               File "special://xbmc/system/python/Lib\urllib2.py", line 364, in open
  595.                                                 response = meth(req, response)
  596.                                               File "special://xbmc/system/python/Lib\urllib2.py", line 471, in http_response
  597.                                                 response = self.parent.error(
  598.                                               File "special://xbmc/system/python/Lib\urllib2.py", line 402, in error
  599.                                                 return self._call_chain(*args)
  600.                                               File "special://xbmc/system/python/Lib\urllib2.py", line 337, in _call_chain
  601.                                                 result = func(*args)
  602.                                               File "special://xbmc/system/python/Lib\urllib2.py", line 480, in http_error_default
  603.                                                 raise HTTPError(req.get_full_url(), code, msg, hdrs, fp)
  604.                                             HTTPError: HTTP Error 404: Not Found
  605. 19:13:19 T:5172 M:951291904    INFO: -->End of Python script error report<--
  606. 19:13:19 T:5172 M:951283712    INFO: Python script stopped
  607. 19:13:19 T:5172 M:951279616   DEBUG: Thread 5172 terminating
  608. 19:13:19 T:5512 M:951320576   DEBUG:  XFILE::CPluginDirectory::WaitOnScriptResult - plugin exited prematurely - terminating
  609. 19:13:19 T:3688 M:951312384   ERROR: XFILE::CDirectory::GetDirectory - Error getting plugin://plugin.video.youtube/?path=/root/explore/shows&category=%2Fshows%3Fbid%3D4od%26amp%3Bfeature%3Dsh_c%26amp%3Bpt%3Db%26amp%3Bl%3Den&scraper=shows&login=true&
  610. 19:13:19 T:3688 M:951312384   ERROR: CGUIMediaWindow::GetDirectory(plugin://plugin.video.youtube/?path=/root/explore/shows&category=%2Fshows%3Fbid%3D4od%26amp%3Bfeature%3Dsh_c%26amp%3Bpt%3Db%26amp%3Bl%3Den&scraper=shows&login=true&) failed
  611. 19:13:19 T:3688 M:951312384   DEBUG: CGUIMediaWindow::GetDirectory (plugin://plugin.video.youtube/?path=/root/explore/shows&scraper=shows&login=false&)
  612. 19:13:19 T:3688 M:951312384   DEBUG:   ParentPath = [plugin://plugin.video.youtube/?path=/root/explore&login=false&]
  613. 19:13:19 T:2944 M:951312384   DEBUG: XFILE::CPluginDirectory::StartScript - calling plugin YouTube('plugin://plugin.video.youtube/','0','?path=/root/explore/shows&scraper=shows&login=false&')
  614. 19:13:19 T:2944 M:951312384    INFO: initializing python engine.
  615. 19:13:19 T:2944 M:951312384   DEBUG: new python thread created. id=8
  616. 19:13:19 T:2944 M:951304192   DEBUG: XFILE::CPluginDirectory::WaitOnScriptResult - waiting on the YouTube plugin...
  617. 19:13:19 T:4912 M:951300096   DEBUG: thread start, auto delete: 0
  618. 19:13:19 T:4912 M:951296000   DEBUG: Python thread: start processing
  619. 19:13:19 T:4912 M:952311808   DEBUG:   msg: 'import site' failed; use -v for traceback
  620. 19:13:19 T:4912 M:952311808  NOTICE: -->Python Interpreter Initialized<--
  621. 19:13:19 T:4912 M:952311808   DEBUG: XBPyThread::Process - The source file to load is C:\Users\Mike\AppData\Roaming\XBMC\addons\plugin.video.youtube\default.py
  622. 19:13:19 T:4912 M:952311808   DEBUG: XBPyThread::Process - Setting the Python path to C:\Users\Mike\AppData\Roaming\XBMC\addons\plugin.video.youtube;C:\Users\Mike\AppData\Roaming\XBMC\addons\script.module.simplejson\lib;C:\Users\Mike\AppData\Roaming\XBMC\addons\script.module.beautifulsoup\lib;C:\Program Files\XBMC\addons\script.module.pil\lib;C:\Users\Mike\AppData\Roaming\XBMC\addons\script.web.viewer\lib;C:\Users\Mike\AppData\Roaming\XBMC\addons\script.module.elementtree\lib;C:\Program Files\XBMC\addons\script.module.pysqlite\lib;special://xbmc/system/python/DLLs;special://xbmc/system/python/Lib;special://xbmcbin/system/python/python24.zip;special://xbmc/system/python\DLLs;special://xbmc/system/python\lib;special://xbmc/system/python\lib\plat-win;special://xbmc/system/python\lib\lib-tk;C:\Program Files\XBMC
  623. 19:13:19 T:4912 M:952311808   DEBUG: XBPyThread::Process - Entering source directory C:\Users\Mike\AppData\Roaming\XBMC\addons\plugin.video.youtube
  624. 19:13:19 T:4912 M:952299520  NOTICE: YouTube-2.0.5
  625. 19:13:19 T:3688 M:951513088   DEBUG: ------ Window Init (DialogBusy.xml) ------
  626. 19:13:20 T:2944 M:952397824    INFO: Loading skin file: DialogProgress.xml
  627. 19:13:20 T:2944 M:952393728   DEBUG: ------ Window Init (DialogProgress.xml) ------
  628. 19:13:20 T:3688 M:952229888   DEBUG: python thread 7 destructed
  629. 19:13:20 T:3688 M:952393728    INFO: Loading skin file: DialogKaiToast.xml
  630. 19:13:20 T:3688 M:952389632   DEBUG: ------ Window Init (DialogKaiToast.xml) ------
  631. 19:13:20 T:3688 M:951853056   DEBUG: ------ Window Deinit (DialogBusy.xml) ------
  632. 19:13:23 T:2944 M:953475072   DEBUG: XFILE::CPluginDirectory::WaitOnScriptResult- plugin returned successfully
  633. 19:13:23 T:4912 M:953475072    INFO: Scriptresult: Success
  634. 19:13:23 T:4912 M:953475072    INFO: Python script stopped
  635. 19:13:23 T:4912 M:953475072   DEBUG: Thread 4912 terminating
  636. 19:13:23 T:3688 M:953495552 WARNING: XFILE::CVideoDatabaseDirectory::GetLabel - Unknown nodetype requested 6
  637. 19:13:23 T:964 M:953487360   DEBUG: thread start, auto delete: 0
  638. 19:13:23 T:3688 M:953479168   DEBUG: python thread 8 destructed
  639. 19:13:23 T:964 M:953479168   DEBUG: Thread 964 terminating
  640. 19:13:23 T:3688 M:953610240   DEBUG: ------ Window Deinit (DialogProgress.xml) ------
  641. 19:13:24 T:3688 M:953622528    INFO: XCURL::DllLibCurlGlobal::CheckIdle - Closing session to http://feeds.feedburner.com (easy=02856FE8, multi=02890960)
  642. 19:13:24 T:3688 M:953618432    INFO: XCURL::DllLibCurlGlobal::CheckIdle - Closing session to http://newsrss.bbc.co.uk (easy=02863D70, multi=02890C10)
  643. 19:13:25 T:3688 M:953618432   DEBUG: SDLKeyboard: scancode: 31, sym: 115, unicode: 115, modifier: 0
  644. 19:13:25 T:3688 M:953618432   DEBUG: CApplication::OnKey: 61523 pressed, action is ActivateWindow(shutdownmenu)
  645. 19:13:25 T:3688 M:953618432   DEBUG: Activating window ID: 10111
  646. 19:13:25 T:3688 M:953618432   DEBUG: Checking if window ID 10111 is locked.
  647. 19:13:25 T:3688 M:953618432   DEBUG: ------ Window Init (DialogButtonMenu.xml) ------
  648. 19:13:25 T:3688 M:953618432    INFO: Loading skin file: DialogButtonMenu.xml
  649. 19:13:25 T:3688 M:951824384    INFO: XCURL::DllLibCurlGlobal::CheckIdle - Closing session to http://xoap.weather.com (easy=02843658, multi=02861A40)
  650. 19:13:25 T:3688 M:951795712    INFO: XCURL::DllLibCurlGlobal::CheckIdle - Closing session to http://www.highways.gov.uk (easy=02873AE8, multi=02852990)
  651. 19:13:26 T:3688 M:953073664   DEBUG: SDLKeyboard: scancode: 75, sym: 276, unicode: 0, modifier: 0
  652. 19:13:26 T:3688 M:953073664   DEBUG: CApplication::OnKey: 61477 pressed, action is Left
  653. 19:13:26 T:3688 M:953016320   DEBUG: ------ Window Deinit (DialogKaiToast.xml) ------
  654. 19:13:26 T:3688 M:953040896   DEBUG: SDLKeyboard: scancode: 75, sym: 276, unicode: 0, modifier: 0
  655. 19:13:26 T:3688 M:953040896   DEBUG: CApplication::OnKey: 61477 pressed, action is Left
  656. 19:13:27 T:3688 M:952520704   DEBUG: SDLKeyboard: scancode: 28, sym: 13, unicode: 13, modifier: 0
  657. 19:13:27 T:3688 M:952520704   DEBUG: CApplication::OnKey: 61453 pressed, action is Select
  658. 19:13:27 T:3688 M:952492032   DEBUG: CApplication::ExecuteXBMCAction : Translating Quit
  659. 19:13:27 T:3688 M:952492032   DEBUG: CApplication::ExecuteXBMCAction : To Quit
  660. 19:13:27 T:3688 M:952492032   DEBUG: CAnnouncementManager - Announcement: ApplicationStop from xbmc
  661. 19:13:27 T:5512 M:952459264   DEBUG: Thread 5512 terminating (autodelete)
  662. 19:13:27 T:3508 M:952459264   DEBUG: Thread 3508 terminating (autodelete)
  663. 19:13:27 T:2944 M:952537088   DEBUG: Thread 2944 terminating (autodelete)
  664. 19:13:27 T:4232 M:952537088   DEBUG: Thread 4232 terminating
  665. 19:13:27 T:3688 M:952639488  NOTICE: Storing total System Uptime
  666. 19:13:27 T:3688 M:952733696  NOTICE: Saving settings
  667. 19:13:27 T:3688 M:952627200  NOTICE: stop all
  668. 19:13:27 T:3688 M:952627200   DEBUG: CNetwork::NetworkMessage - Signaling network services to stop
  669. 19:13:27 T:3688 M:952627200  NOTICE: ES: Stopping event server
  670. 19:13:27 T:3688 M:952619008   DEBUG: CNetwork::NetworkMessage - Waiting for network services to stop
  671. 19:13:27 T:4992 M:952647680  NOTICE: ES: UDP Event server stopped
  672. 19:13:27 T:4992 M:952647680   DEBUG: Thread 4992 terminating
  673. 19:13:27 T:5860 M:952647680   DEBUG: Thread 5860 terminating
  674. 19:13:27 T:3688 M:952709120  NOTICE: stop sap announcement listener
  675. 19:13:27 T:3688 M:952709120  NOTICE: clean cached files!
  676. 19:13:27 T:3688 M:952700928  NOTICE: unload skin
  677. 19:13:27 T:3688 M:952700928    INFO: Unloading old skin ...
  678. 19:13:27 T:3688 M:952700928   DEBUG: CGUIAudioManager::DeInitialize
  679. 19:13:27 T:3688 M:952700928   DEBUG: ------ Window Deinit (MyVideoNav.xml) ------
  680. 19:13:27 T:3688 M:953212928   DEBUG: ------ Window Deinit (Pointer.xml) ------
  681. 19:13:27 T:3688 M:953212928   DEBUG: ------ Window Deinit (DialogMuteBug.xml) ------
  682. 19:13:27 T:3688 M:953212928   DEBUG: CTextureBundleXBT::Cleanup - Closed bundle
  683. 19:13:27 T:3688 M:956907520  NOTICE: stop python
  684. 19:13:27 T:5480 M:956907520    INFO:   msg: Fatal Python error: Py_EndInterpreter: not the last thread
RAW Paste Data
We use cookies for various purposes including analytics. By continuing to use Pastebin, you agree to our use of cookies as described in the Cookies Policy. OK, I Understand
 
Top